createdAt,value
2022-12-28T00:00:39.647Z,9.18
2022-12-28T00:03:29.856Z,9.15
2022-12-28T00:06:21.374Z,9.11
2022-12-28T00:09:12.918Z,9.16
2022-12-28T00:12:02.358Z,9.17
2022-12-28T00:14:53.053Z,9.07
2022-12-28T00:17:42.250Z,9.09
2022-12-28T00:20:31.483Z,9.12
2022-12-28T00:23:20.752Z,9.10
2022-12-28T00:26:12.657Z,8.96
2022-12-28T00:29:05.087Z,9.11
2022-12-28T00:31:56.375Z,9.03
2022-12-28T00:34:46.568Z,8.99
2022-12-28T00:37:35.837Z,9.05
2022-12-28T00:40:26.950Z,9.01
2022-12-28T00:43:16.363Z,9.02
2022-12-28T00:46:06.117Z,9.00
2022-12-28T00:48:58.200Z,8.89
2022-12-28T00:51:48.825Z,8.95
2022-12-28T00:54:38.054Z,8.89
2022-12-28T00:57:27.386Z,8.85
2022-12-28T01:00:17.960Z,8.88
2022-12-28T01:03:07.351Z,8.85
2022-12-28T01:05:57.997Z,8.83
2022-12-28T01:08:47.746Z,8.85
2022-12-28T01:11:36.981Z,8.76
2022-12-28T01:14:26.593Z,8.84
2022-12-28T01:17:15.805Z,8.79
2022-12-28T01:20:08.070Z,8.84
2022-12-28T01:22:58.793Z,8.84
2022-12-28T01:25:47.982Z,8.93
2022-12-28T01:28:37.995Z,8.88
2022-12-28T01:31:28.153Z,8.91
2022-12-28T01:34:17.414Z,8.94
2022-12-28T01:37:09.095Z,8.93
2022-12-28T01:40:00.249Z,8.94
2022-12-28T01:42:49.547Z,8.94
2022-12-28T01:45:38.999Z,9.00
2022-12-28T01:48:28.404Z,8.95
2022-12-28T01:51:21.414Z,8.97
2022-12-28T01:54:11.194Z,9.09
2022-12-28T01:57:02.248Z,8.93
2022-12-28T02:00:01.935Z,9.04
2022-12-28T02:03:07.276Z,9.09
2022-12-28T02:06:05.110Z,9.03
2022-12-28T02:09:05.969Z,9.08
2022-12-28T02:11:55.821Z,9.09
2022-12-28T02:14:47.948Z,9.05
2022-12-28T02:17:37.275Z,9.03
2022-12-28T02:20:35.687Z,9.02
2022-12-28T02:23:41.617Z,8.95
2022-12-28T02:27:01.556Z,8.99
2022-12-28T02:30:04.518Z,8.93
2022-12-28T02:33:02.698Z,9.02
2022-12-28T02:35:59.459Z,8.92
2022-12-28T02:38:55.327Z,8.99
2022-12-28T02:41:46.684Z,8.92
2022-12-28T02:44:55.496Z,9.05
2022-12-28T02:48:06.573Z,8.97
2022-12-28T02:51:18.343Z,9.04
2022-12-28T02:54:54.021Z,9.11
2022-12-28T02:58:06.058Z,9.07
2022-12-28T03:01:14.798Z,9.06
2022-12-28T03:04:16.561Z,9.09
2022-12-28T03:07:32.593Z,9.06
2022-12-28T03:10:30.394Z,9.10
2022-12-28T03:13:44.025Z,9.05
2022-12-28T03:16:54.301Z,9.11
2022-12-28T03:20:12.329Z,9.11
2022-12-28T03:23:24.292Z,9.17
2022-12-28T03:26:33.054Z,9.19
2022-12-28T03:29:42.923Z,9.13
2022-12-28T03:32:32.474Z,9.12
2022-12-28T03:35:29.817Z,9.17
2022-12-28T03:38:28.305Z,9.16
2022-12-28T03:41:36.418Z,9.18
2022-12-28T03:44:42.534Z,9.22
2022-12-28T03:47:35.007Z,9.21
2022-12-28T03:50:25.915Z,9.19
2022-12-28T03:53:15.801Z,9.17
2022-12-28T03:56:12.101Z,9.13
2022-12-28T03:59:02.693Z,9.19
2022-12-28T04:02:01.659Z,9.12
2022-12-28T04:04:52.800Z,9.14
2022-12-28T04:07:43.580Z,8.97
2022-12-28T04:10:32.975Z,9.07
2022-12-28T04:13:22.632Z,8.96
2022-12-28T04:16:22.636Z,8.95
2022-12-28T04:19:11.956Z,8.88
2022-12-28T04:22:01.190Z,8.82
2022-12-28T04:24:52.002Z,8.82
2022-12-28T04:27:41.240Z,8.79
2022-12-28T04:30:41.241Z,8.74
2022-12-28T04:33:33.573Z,8.69
2022-12-28T04:36:22.771Z,8.67
2022-12-28T04:39:13.337Z,8.62
2022-12-28T04:42:03.979Z,8.57
2022-12-28T04:44:53.268Z,8.48
2022-12-28T04:47:42.714Z,8.52
2022-12-28T04:50:32.413Z,8.47
2022-12-28T04:53:22.524Z,8.54
2022-12-28T04:56:13.830Z,8.56
2022-12-28T04:59:04.454Z,8.53
2022-12-28T05:01:54.125Z,8.52
2022-12-28T05:04:43.513Z,8.63
2022-12-28T05:07:33.000Z,8.69
2022-12-28T05:10:22.677Z,8.71
2022-12-28T05:13:12.116Z,8.70
2022-12-28T05:16:04.781Z,8.74
2022-12-28T05:18:54.156Z,8.79
2022-12-28T05:21:43.392Z,8.78
2022-12-28T05:24:32.714Z,8.78
2022-12-28T05:27:22.395Z,8.79
2022-12-28T05:30:13.033Z,8.83
2022-12-28T05:33:03.632Z,8.99
2022-12-28T05:35:52.842Z,8.93
2022-12-28T05:38:42.128Z,8.99
2022-12-28T05:41:32.079Z,9.00
2022-12-28T05:44:21.304Z,9.08
2022-12-28T05:47:10.552Z,9.04
2022-12-28T05:50:01.352Z,8.88
2022-12-28T05:52:50.607Z,8.83
2022-12-28T05:55:39.822Z,8.74
2022-12-28T05:58:29.188Z,8.62
2022-12-28T06:01:20.930Z,8.51
2022-12-28T06:04:16.104Z,8.52
2022-12-28T06:07:07.021Z,8.45
2022-12-28T06:09:56.295Z,8.42
2022-12-28T06:12:45.525Z,8.40
2022-12-28T06:15:35.113Z,8.39
2022-12-28T06:18:24.389Z,8.35
2022-12-28T06:21:16.489Z,8.34
2022-12-28T06:24:09.147Z,8.28
2022-12-28T06:26:58.362Z,8.30
2022-12-28T06:29:47.560Z,8.32
2022-12-28T06:32:36.807Z,8.34
2022-12-28T06:35:26.073Z,8.31
2022-12-28T06:38:15.335Z,8.22
2022-12-28T06:41:14.997Z,8.31
2022-12-28T06:44:08.086Z,8.31
2022-12-28T06:46:57.298Z,8.33
2022-12-28T06:49:46.554Z,8.34
2022-12-28T06:52:35.943Z,8.43
2022-12-28T06:55:25.283Z,8.41
2022-12-28T06:58:15.921Z,8.40
2022-12-28T07:01:09.485Z,8.46
2022-12-28T07:04:00.335Z,8.44
2022-12-28T07:06:49.622Z,8.50
2022-12-28T07:09:38.913Z,8.54
2022-12-28T07:12:28.158Z,8.55
2022-12-28T07:15:18.951Z,8.60
2022-12-28T07:18:08.394Z,8.59
2022-12-28T07:21:02.241Z,8.68
2022-12-28T07:23:53.768Z,8.66
2022-12-28T07:26:42.970Z,8.72
2022-12-28T07:29:32.195Z,8.73
2022-12-28T07:32:22.858Z,8.74
2022-12-28T07:35:12.331Z,8.72
2022-12-28T07:38:01.538Z,8.73
2022-12-28T07:40:50.787Z,8.79
2022-12-28T07:43:40.315Z,8.80
2022-12-28T07:46:32.339Z,8.81
2022-12-28T07:49:22.954Z,8.93
2022-12-28T07:52:12.201Z,8.96
2022-12-28T07:55:01.415Z,8.91
2022-12-28T07:57:52.071Z,8.97
2022-12-28T08:00:41.299Z,9.05
2022-12-28T08:03:30.479Z,9.11
2022-12-28T08:06:23.131Z,9.09
2022-12-28T08:09:14.378Z,9.09
2022-12-28T08:12:03.696Z,9.12
2022-12-28T08:14:52.900Z,9.15
2022-12-28T08:17:42.158Z,9.04
2022-12-28T08:20:32.166Z,9.19
2022-12-28T08:23:22.889Z,9.22
2022-12-28T08:26:15.231Z,9.26
2022-12-28T08:29:07.532Z,9.23
2022-12-28T08:31:56.715Z,9.29
2022-12-28T08:34:45.920Z,9.25
2022-12-28T08:37:35.136Z,9.29
2022-12-28T08:40:29.915Z,9.32
2022-12-28T08:43:19.185Z,9.34
2022-12-28T08:46:13.633Z,9.36
2022-12-28T08:49:03.688Z,9.38
2022-12-28T08:51:53.002Z,9.40
2022-12-28T08:54:42.250Z,9.38
2022-12-28T08:57:34.010Z,9.41
2022-12-28T09:00:23.641Z,9.42
2022-12-28T09:03:12.995Z,9.44
2022-12-28T09:06:05.005Z,9.45
2022-12-28T09:09:05.525Z,9.43
2022-12-28T09:11:56.091Z,9.49
2022-12-28T09:14:46.693Z,9.43
2022-12-28T09:17:36.063Z,9.56
2022-12-28T09:20:25.257Z,9.60
2022-12-28T09:23:14.922Z,9.60
2022-12-28T09:26:09.370Z,9.59
2022-12-28T09:29:00.937Z,9.62
2022-12-28T09:31:51.572Z,9.71
2022-12-28T09:34:40.796Z,9.82
2022-12-28T09:37:30.013Z,9.92
2022-12-28T09:40:19.555Z,9.99
2022-12-28T09:43:13.061Z,10.00
2022-12-28T09:46:02.475Z,10.12
2022-12-28T09:48:58.850Z,10.25
2022-12-28T09:51:54.873Z,10.36
2022-12-28T09:54:44.166Z,10.44
2022-12-28T09:57:38.950Z,10.53
2022-12-28T10:00:38.725Z,10.62
2022-12-28T10:03:34.714Z,10.64
2022-12-28T10:06:29.129Z,10.75
2022-12-28T10:09:28.057Z,10.75
2022-12-28T10:12:21.113Z,10.80
2022-12-28T10:15:14.990Z,10.97
2022-12-28T10:18:05.872Z,11.10
2022-12-28T10:20:56.157Z,11.23
2022-12-28T10:27:00.580Z,11.31
2022-12-28T10:29:51.987Z,11.35
2022-12-28T10:32:55.510Z,11.37
2022-12-28T10:35:55.306Z,11.38
2022-12-28T10:38:52.121Z,11.44
2022-12-28T10:41:41.923Z,11.55
2022-12-28T10:44:41.863Z,11.60
2022-12-28T10:47:36.013Z,11.67
2022-12-28T10:50:54.277Z,11.75
2022-12-28T10:53:46.313Z,11.89
2022-12-28T10:56:50.295Z,12.02
2022-12-28T10:59:40.752Z,11.77
2022-12-28T11:02:32.744Z,12.25
2022-12-28T11:05:25.575Z,12.31
2022-12-28T11:08:15.697Z,12.52
2022-12-28T11:11:05.468Z,12.77
2022-12-28T11:14:01.046Z,13.00
2022-12-28T11:16:50.523Z,13.23
2022-12-28T11:19:39.843Z,13.36
2022-12-28T11:22:32.012Z,13.32
2022-12-28T11:25:27.469Z,13.37
2022-12-28T11:28:21.324Z,13.32
2022-12-28T11:31:23.863Z,13.29
2022-12-28T11:34:21.134Z,13.23
2022-12-28T11:37:14.684Z,13.28
2022-12-28T11:40:04.018Z,13.40
2022-12-28T11:42:57.351Z,13.37
2022-12-28T11:45:53.983Z,13.46
2022-12-28T11:49:04.687Z,13.61
2022-12-28T11:52:45.459Z,13.60
2022-12-28T11:55:50.803Z,13.57
2022-12-28T11:59:11.698Z,13.61
2022-12-28T12:02:02.158Z,13.55
2022-12-28T12:04:52.790Z,13.62
2022-12-28T12:07:49.912Z,13.44
2022-12-28T12:10:41.650Z,13.38
2022-12-28T12:13:45.598Z,13.40
2022-12-28T12:16:50.407Z,13.55
2022-12-28T12:19:48.353Z,13.98
2022-12-28T12:22:49.604Z,14.22
2022-12-28T12:25:44.208Z,14.21
2022-12-28T12:28:42.089Z,14.10
2022-12-28T12:31:35.145Z,13.87
2022-12-28T12:34:28.784Z,13.70
2022-12-28T12:37:47.697Z,13.47
2022-12-28T12:41:14.995Z,13.34
2022-12-28T12:44:24.391Z,13.26
2022-12-28T12:48:11.419Z,13.30
2022-12-28T12:51:17.099Z,13.46
2022-12-28T12:54:26.712Z,13.33
2022-12-28T12:57:22.056Z,13.38
2022-12-28T13:00:17.457Z,13.39
2022-12-28T13:03:31.098Z,13.37
2022-12-28T13:06:23.146Z,13.21
2022-12-28T13:09:19.448Z,13.21
2022-12-28T13:12:15.940Z,13.19
2022-12-28T13:15:12.404Z,13.27
2022-12-28T13:18:42.609Z,13.22
2022-12-28T13:21:20.712Z,13.19
2022-12-28T13:24:23.106Z,13.20
2022-12-28T13:27:22.055Z,13.22
2022-12-28T13:30:20.318Z,13.22
2022-12-28T13:33:22.789Z,13.28
2022-12-28T13:36:19.173Z,13.05
2022-12-28T13:39:15.195Z,13.03
2022-12-28T13:42:13.521Z,12.96
2022-12-28T13:45:05.165Z,12.80
2022-12-28T13:47:56.158Z,12.78
2022-12-28T13:50:45.483Z,12.66
2022-12-28T13:53:34.957Z,12.76
2022-12-28T13:56:25.222Z,12.65
2022-12-28T13:59:20.366Z,12.55
2022-12-28T14:02:14.349Z,12.57
2022-12-28T14:05:04.164Z,12.48
2022-12-28T14:07:56.261Z,12.43
2022-12-28T14:10:48.363Z,12.42
2022-12-28T14:13:38.277Z,12.42
2022-12-28T14:16:29.348Z,12.45
2022-12-28T14:19:18.849Z,12.48
2022-12-28T14:22:27.761Z,12.46
2022-12-28T14:25:19.512Z,12.35
2022-12-28T14:28:09.071Z,12.40
2022-12-28T14:30:59.541Z,12.37
2022-12-28T14:33:56.395Z,12.39
2022-12-28T14:36:52.535Z,12.45
2022-12-28T14:39:46.648Z,12.50
2022-12-28T14:42:36.094Z,12.51
2022-12-28T14:46:04.895Z,12.51
2022-12-28T14:48:50.328Z,12.28
2022-12-28T14:51:44.268Z,12.48
2022-12-28T14:54:35.612Z,12.39
2022-12-28T14:57:31.584Z,12.35
2022-12-28T15:00:27.375Z,12.34
2022-12-28T15:03:20.811Z,12.34
2022-12-28T15:06:10.091Z,12.36
2022-12-28T15:09:05.060Z,12.45
2022-12-28T15:12:14.028Z,12.26
2022-12-28T15:15:03.472Z,12.42
2022-12-28T15:17:52.807Z,12.54
2022-12-28T15:20:42.151Z,12.45
2022-12-28T15:23:31.429Z,12.42
2022-12-28T15:26:23.781Z,12.44
2022-12-28T15:29:18.825Z,12.55
2022-12-28T15:32:11.533Z,12.60
2022-12-28T15:35:00.721Z,12.62
2022-12-28T15:37:50.045Z,12.55
2022-12-28T15:40:41.258Z,12.51
2022-12-28T15:43:31.849Z,12.60
2022-12-28T15:46:21.526Z,12.44
2022-12-28T15:49:14.689Z,12.42
2022-12-28T15:52:03.733Z,12.30
2022-12-28T15:54:52.884Z,12.30
2022-12-28T15:57:42.112Z,12.18
2022-12-28T16:00:32.835Z,12.14
2022-12-28T16:03:22.930Z,12.18
2022-12-28T16:06:14.041Z,12.08
2022-12-28T16:09:03.974Z,11.99
2022-12-28T16:11:55.455Z,11.87
2022-12-28T16:14:47.811Z,12.00
2022-12-28T16:17:49.797Z,11.97
2022-12-28T16:20:42.520Z,11.92
2022-12-28T16:23:32.826Z,11.98
2022-12-28T16:26:23.234Z,11.84
2022-12-28T16:29:12.544Z,11.83
2022-12-28T16:32:02.490Z,11.87
2022-12-28T16:34:55.412Z,11.61
2022-12-28T16:37:44.642Z,11.68
2022-12-28T16:40:35.470Z,11.54
2022-12-28T16:43:25.340Z,11.60
2022-12-28T16:46:14.903Z,11.63
2022-12-28T16:49:05.439Z,11.64
2022-12-28T16:51:56.511Z,11.60
2022-12-28T16:54:45.721Z,11.53
2022-12-28T16:57:35.029Z,11.52
2022-12-28T17:00:25.226Z,11.48
2022-12-28T17:03:14.631Z,11.52
2022-12-28T17:06:04.697Z,11.51
2022-12-28T17:08:55.343Z,11.57
2022-12-28T17:11:47.109Z,11.55
2022-12-28T17:14:38.036Z,11.49
2022-12-28T17:17:27.642Z,11.49
2022-12-28T17:20:17.087Z,11.59
2022-12-28T17:23:07.233Z,11.45
2022-12-28T17:25:58.061Z,11.42
2022-12-28T17:28:47.637Z,11.45
2022-12-28T17:31:36.867Z,11.29
2022-12-28T17:34:26.270Z,11.40
2022-12-28T17:37:15.525Z,11.51
2022-12-28T17:40:05.302Z,11.41
2022-12-28T17:42:55.895Z,11.45
2022-12-28T17:45:45.161Z,11.48
2022-12-28T17:48:34.460Z,11.55
2022-12-28T17:51:25.640Z,11.46
2022-12-28T17:54:16.848Z,11.51
2022-12-28T17:57:06.137Z,11.59
2022-12-28T17:59:57.627Z,11.61
2022-12-28T18:02:47.674Z,11.51
2022-12-28T18:05:37.093Z,11.43
2022-12-28T18:08:26.333Z,11.44
2022-12-28T18:11:15.730Z,11.41
2022-12-28T18:14:05.015Z,11.41
2022-12-28T18:16:56.632Z,11.28
2022-12-28T18:19:46.022Z,11.36
2022-12-28T18:22:35.293Z,11.37
2022-12-28T18:25:25.068Z,11.31
2022-12-28T18:28:15.156Z,11.28
2022-12-28T18:31:06.213Z,11.33
2022-12-28T18:33:56.885Z,11.36
2022-12-28T18:36:46.384Z,11.47
2022-12-28T18:39:35.667Z,11.41
2022-12-28T18:42:25.923Z,11.33
2022-12-28T18:45:15.388Z,11.08
2022-12-28T18:48:04.892Z,11.12
2022-12-28T18:50:57.439Z,11.02
2022-12-28T18:53:47.332Z,11.10
2022-12-28T18:56:36.571Z,11.12
2022-12-28T18:59:25.873Z,10.95
2022-12-28T19:02:19.426Z,11.12
2022-12-28T19:05:09.706Z,11.07
2022-12-28T19:08:00.307Z,11.14
2022-12-28T19:10:51.099Z,11.03
2022-12-28T19:13:43.193Z,11.05
2022-12-28T19:16:32.708Z,11.00
2022-12-28T19:19:22.031Z,11.06
2022-12-28T19:22:11.345Z,11.00
2022-12-28T19:25:02.220Z,11.00
2022-12-28T19:27:51.888Z,10.91
2022-12-28T19:30:41.159Z,10.96
2022-12-28T19:33:30.637Z,11.03
2022-12-28T19:36:20.040Z,10.79
2022-12-28T19:39:09.343Z,10.61
2022-12-28T19:41:59.962Z,10.43
2022-12-28T19:44:49.225Z,10.44
2022-12-28T19:47:38.423Z,10.43
2022-12-28T19:50:27.734Z,10.27
2022-12-28T19:53:17.083Z,10.33
2022-12-28T19:56:09.065Z,10.29
2022-12-28T19:59:06.151Z,10.05
2022-12-28T20:01:56.603Z,9.99
2022-12-28T20:04:46.033Z,10.09
2022-12-28T20:07:39.531Z,9.94
2022-12-28T20:10:30.154Z,10.06
2022-12-28T20:13:19.617Z,9.99
2022-12-28T20:16:11.520Z,9.99
2022-12-28T20:19:01.803Z,10.01
2022-12-28T20:21:51.366Z,9.97
2022-12-28T20:24:40.691Z,9.92
2022-12-28T20:27:31.014Z,9.85
2022-12-28T20:30:20.685Z,9.80
2022-12-28T20:33:11.621Z,9.71
2022-12-28T20:36:04.034Z,9.63
2022-12-28T20:38:55.148Z,9.60
2022-12-28T20:42:01.685Z,9.47
2022-12-28T20:44:50.998Z,9.47
2022-12-28T20:47:40.384Z,9.31
2022-12-28T20:50:31.199Z,9.32
2022-12-28T20:53:20.576Z,9.21
2022-12-28T20:56:11.349Z,9.11
2022-12-28T20:59:00.692Z,9.12
2022-12-28T21:01:50.366Z,8.97
2022-12-28T21:04:39.787Z,8.93
2022-12-28T21:07:32.237Z,8.92
2022-12-28T21:10:21.655Z,8.92
2022-12-28T21:13:10.967Z,8.96
2022-12-28T21:16:03.778Z,8.84
2022-12-28T21:18:53.322Z,8.89
2022-12-28T21:21:42.931Z,8.86
2022-12-28T21:24:33.881Z,8.80
2022-12-28T21:27:23.171Z,8.92
2022-12-28T21:30:13.715Z,8.87
2022-12-28T21:33:03.129Z,8.92
2022-12-28T21:36:00.771Z,9.02
2022-12-28T21:38:50.971Z,9.02
2022-12-28T21:41:50.571Z,8.98
2022-12-28T21:44:40.399Z,9.12
2022-12-28T21:47:29.879Z,9.12
2022-12-28T21:50:19.431Z,9.09
2022-12-28T21:53:08.826Z,9.14
2022-12-28T21:55:58.351Z,9.09
2022-12-28T21:58:50.221Z,8.99
2022-12-28T22:01:58.808Z,9.03
2022-12-28T22:05:14.334Z,9.00
2022-12-28T22:08:17.456Z,8.91
2022-12-28T22:11:24.620Z,8.86
2022-12-28T22:14:15.337Z,8.80
2022-12-28T22:17:07.373Z,8.83
2022-12-28T22:20:00.255Z,8.85
2022-12-28T22:22:49.572Z,8.84
2022-12-28T22:25:39.095Z,8.83
2022-12-28T22:28:28.423Z,8.83
2022-12-28T22:31:19.289Z,8.80
2022-12-28T22:34:08.957Z,8.77
2022-12-28T22:36:58.251Z,8.77
2022-12-28T22:39:47.708Z,8.67
2022-12-28T22:42:40.759Z,8.75
2022-12-28T22:45:29.988Z,8.76
2022-12-28T22:48:20.597Z,8.74
2022-12-28T22:51:12.392Z,8.78
2022-12-28T22:54:01.665Z,8.63
2022-12-28T22:56:50.924Z,8.65
2022-12-28T22:59:40.233Z,8.74
2022-12-28T23:02:31.293Z,8.66
2022-12-28T23:05:22.034Z,8.58
2022-12-28T23:08:11.337Z,8.66
2022-12-28T23:11:02.909Z,8.58
2022-12-28T23:13:52.224Z,8.52
2022-12-28T23:16:40.559Z,8.62
2022-12-28T23:19:48.768Z,8.60
2022-12-28T23:22:56.886Z,8.59
2022-12-28T23:26:03.265Z,8.54
2022-12-28T23:28:52.612Z,8.60
2022-12-28T23:31:42.073Z,8.65
2022-12-28T23:34:31.452Z,8.65
2022-12-28T23:37:20.809Z,8.66
2022-12-28T23:40:16.032Z,8.61
2022-12-28T23:43:05.337Z,8.66
2022-12-28T23:45:54.750Z,8.52
2022-12-28T23:48:44.045Z,8.58
2022-12-28T23:51:33.271Z,8.40
2022-12-28T23:54:22.793Z,8.60
2022-12-28T23:57:13.480Z,8.53
